Fort Myer, Virginia
Current Conditions -  °F | °C
As of 10:52 AM on Friday 24 Oct 2014 (Local Time) from KDCA Reporting Station
Broken Clouds Broken Clouds  
Wind Chill: 17°   Ceiling: 25000
Heat Index: 17°   Visibility: 10mi
Dew Point:   Wind: 14mph
Humidity: 46%   Direction: 310°NW
Pressure: 29.99"   Gusts: 25mph
Location:  38.88°N, 77.08°W
Report Text: KDCA 241452Z 31012G22KT 10SM FEW120 BKN250 17/06 A2999 RMK AO2 SLP153 ACSL NW T01720056 50003
Loading
Personal Weather Stations






























Interactive Weather Map
Tropical Storm Tracking
New forecast layout! Learn more

10-Day Weather Forecast

Advertisements
Track Severe Weather on mobile